首页
METAR-TAF:

METAR-TAF

机场 :

Greenwood County Airport

Greenwood, 南卡罗来纳州, 美国

纬度: 34-14-50N, 经度: 082-09-17W, 海拔: 192米

当前天气观测

该预报发布于1小时和2分钟前的00:56 UTC
风速7节,风向南转西南
温度 21°C
湿度 56%
气压 1017 hPa
能見度: 16.1公里
天空无云

METAR: KGRD 070056Z AUTO 20007KT 10SM CLR 21/12 A3002 RMK AO2 SLP161 T02060117

时间: 21:58 (01:58 UTC)


TAF: 丢失

超过4000个机场的气象观测和天气预报(METAR&TAF报告)。

可查询的气象台以黄色和红色小点在地图上表示。

将鼠标移到小点上方,可查看气象台名称。

然后点击查看天气观测和预报。

如需切换地图:点击带黑十字的绿色按钮放大地图;点击带横线的绿色按钮缩小地图;或者点击绿色箭头查看邻近地区的地图。


METAR-TAF: